sensor_id;sensor_type;location;lat;lon;timestamp;P1;durP1;ratioP1;P2;durP2;ratioP2
55112;SDS011;41006;50.920;3.456;2023-04-29T00:00:25;47.38;;;35.90;;
55112;SDS011;41006;50.920;3.456;2023-04-29T00:00:56;56.42;;;36.88;;
55112;SDS011;41006;50.920;3.456;2023-04-29T00:01:26;53.25;;;35.90;;
55112;SDS011;41006;50.920;3.456;2023-04-29T00:01:56;54.97;;;36.83;;
55112;SDS011;41006;50.920;3.456;2023-04-29T00:02:31;51.63;;;35.90;;
55112;SDS011;41006;50.920;3.456;2023-04-29T00:03:01;56.75;;;37.92;;
55112;SDS011;41006;50.920;3.456;2023-04-29T00:03:31;44.75;;;35.15;;
55112;SDS011;41006;50.920;3.456;2023-04-29T00:04:01;46.13;;;34.72;;
55112;SDS011;41006;50.920;3.456;2023-04-29T00:04:34;45.67;;;36.03;;
55112;SDS011;41006;50.920;3.456;2023-04-29T00:05:09;47.42;;;34.58;;
55112;SDS011;41006;50.920;3.456;2023-04-29T00:05:40;48.72;;;35.10;;
55112;SDS011;41006;50.920;3.456;2023-04-29T00:06:10;44.78;;;34.47;;
55112;SDS011;41006;50.920;3.456;2023-04-29T00:06:40;47.45;;;35.15;;
55112;SDS011;41006;50.920;3.456;2023-04-29T00:07:13;45.10;;;36.15;;
55112;SDS011;41006;50.920;3.456;2023-04-29T00:07:44;51.17;;;36.15;;
55112;SDS011;41006;50.920;3.456;2023-04-29T00:08:17;48.58;;;36.15;;
55112;SDS011;41006;50.920;3.456;2023-04-29T00:08:48;41.75;;;34.80;;
55112;SDS011;41006;50.920;3.456;2023-04-29T00:09:20;44.97;;;34.72;;
55112;SDS011;41006;50.920;3.456;2023-04-29T00:09:53;47.28;;;34.67;;
55112;SDS011;41006;50.920;3.456;2023-04-29T00:10:26;42.80;;;33.75;;
55112;SDS011;41006;50.920;3.456;2023-04-29T00:10:59;44.13;;;34.13;;
55112;SDS011;41006;50.920;3.456;2023-04-29T00:11:34;44.53;;;33.80;;
55112;SDS011;41006;50.920;3.456;2023-04-29T00:12:04;41.63;;;34.35;;
55112;SDS011;41006;50.920;3.456;2023-04-29T00:12:34;45.65;;;35.03;;
55112;SDS011;41006;50.920;3.456;2023-04-29T00:13:07;47.80;;;35.08;;
55112;SDS011;41006;50.920;3.456;2023-04-29T00:13:40;46.88;;;34.80;;
55112;SDS011;41006;50.920;3.456;2023-04-29T00:14:10;47.33;;;36.05;;
55112;SDS011;41006;50.920;3.456;2023-04-29T00:14:44;47.10;;;32.90;;
55112;SDS011;41006;50.920;3.456;2023-04-29T00:15:16;42.50;;;32.35;;
55112;SDS011;41006;50.920;3.456;2023-04-29T00:15:47;45.65;;;32.03;;
55112;SDS011;41006;50.920;3.456;2023-04-29T00:16:19;43.13;;;32.75;;
55112;SDS011;41006;50.920;3.456;2023-04-29T00:16:52;46.95;;;33.38;;
55112;SDS011;41006;50.920;3.456;2023-04-29T00:17:26;44.35;;;32.47;;
55112;SDS011;41006;50.920;3.456;2023-04-29T00:18:00;47.05;;;33.65;;
55112;SDS011;41006;50.920;3.456;2023-04-29T00:18:31;41.33;;;32.90;;
55112;SDS011;41006;50.920;3.456;2023-04-29T00:19:04;44.53;;;33.75;;
55112;SDS011;41006;50.920;3.456;2023-04-29T00:19:34;49.20;;;35.38;;
55112;SDS011;41006;50.920;3.456;2023-04-29T00:20:07;49.13;;;36.03;;
55112;SDS011;41006;50.920;3.456;2023-04-29T00:20:40;44.70;;;33.00;;
55112;SDS011;41006;50.920;3.456;2023-04-29T00:21:15;45.60;;;33.53;;
55112;SDS011;41006;50.920;3.456;2023-04-29T00:21:46;49.88;;;34.95;;
55112;SDS011;41006;50.920;3.456;2023-04-29T00:22:18;44.92;;;33.38;;
55112;SDS011;41006;50.920;3.456;2023-04-29T00:22:52;51.03;;;34.50;;
55112;SDS011;41006;50.920;3.456;2023-04-29T00:23:26;48.20;;;34.67;;
55112;SDS011;41006;50.920;3.456;2023-04-29T00:23:56;49.45;;;35.03;;
55112;SDS011;41006;50.920;3.456;2023-04-29T00:24:29;46.40;;;34.80;;
55112;SDS011;41006;50.920;3.456;2023-04-29T00:25:01;43.45;;;35.15;;
55112;SDS011;41006;50.920;3.456;2023-04-29T00:25:35;42.47;;;34.05;;
55112;SDS011;41006;50.920;3.456;2023-04-29T00:26:07;43.97;;;34.05;;
55112;SDS011;41006;50.920;3.456;2023-04-29T00:26:38;50.10;;;36.10;;
55112;SDS011;41006;50.920;3.456;2023-04-29T00:27:12;45.10;;;35.22;;
55112;SDS011;41006;50.920;3.456;2023-04-29T00:27:42;44.83;;;35.22;;
55112;SDS011;41006;50.920;3.456;2023-04-29T00:28:15;49.50;;;35.17;;
55112;SDS011;41006;50.920;3.456;2023-04-29T00:28:49;50.30;;;37.13;;
55112;SDS011;41006;50.920;3.456;2023-04-29T00:29:19;46.35;;;35.25;;
55112;SDS011;41006;50.920;3.456;2023-04-29T00:29:50;49.22;;;35.97;;
55112;SDS011;41006;50.920;3.456;2023-04-29T00:30:22;45.50;;;35.40;;
55112;SDS011;41006;50.920;3.456;2023-04-29T00:30:55;44.53;;;35.17;;
55112;SDS011;41006;50.920;3.456;2023-04-29T00:31:26;48.00;;;35.97;;
55112;SDS011;41006;50.920;3.456;2023-04-29T00:31:58;45.97;;;33.90;;
55112;SDS011;41006;50.920;3.456;2023-04-29T00:32:29;43.78;;;34.88;;
55112;SDS011;41006;50.920;3.456;2023-04-29T00:32:59;44.85;;;34.88;;
55112;SDS011;41006;50.920;3.456;2023-04-29T00:33:31;49.33;;;34.63;;
55112;SDS011;41006;50.920;3.456;2023-04-29T00:34:04;47.47;;;34.30;;
55112;SDS011;41006;50.920;3.456;2023-04-29T00:34:37;43.97;;;35.58;;
55112;SDS011;41006;50.920;3.456;2023-04-29T00:35:08;43.28;;;34.28;;
55112;SDS011;41006;50.920;3.456;2023-04-29T00:35:38;47.65;;;34.45;;
55112;SDS011;41006;50.920;3.456;2023-04-29T00:36:11;47.90;;;35.20;;
55112;SDS011;41006;50.920;3.456;2023-04-29T00:36:44;50.00;;;35.08;;
55112;SDS011;41006;50.920;3.456;2023-04-29T00:37:15;47.17;;;35.22;;
55112;SDS011;41006;50.920;3.456;2023-04-29T00:37:45;46.63;;;34.38;;
55112;SDS011;41006;50.920;3.456;2023-04-29T00:38:15;45.65;;;35.17;;
55112;SDS011;41006;50.920;3.456;2023-04-29T00:38:46;49.70;;;35.63;;
55112;SDS011;41006;50.920;3.456;2023-04-29T00:39:16;47.53;;;34.85;;
55112;SDS011;41006;50.920;3.456;2023-04-29T00:39:49;45.67;;;34.13;;
55112;SDS011;41006;50.920;3.456;2023-04-29T00:40:19;49.00;;;34.38;;
55112;SDS011;41006;50.920;3.456;2023-04-29T00:40:49;47.20;;;35.28;;
55112;SDS011;41006;50.920;3.456;2023-04-29T00:41:22;42.42;;;33.58;;
55112;SDS011;41006;50.920;3.456;2023-04-29T00:41:52;49.13;;;36.10;;
55112;SDS011;41006;50.920;3.456;2023-04-29T00:42:24;49.45;;;35.08;;
55112;SDS011;41006;50.920;3.456;2023-04-29T00:42:56;46.28;;;35.50;;
55112;SDS011;41006;50.920;3.456;2023-04-29T00:43:29;44.38;;;36.13;;
55112;SDS011;41006;50.920;3.456;2023-04-29T00:44:00;45.47;;;35.40;;
55112;SDS011;41006;50.920;3.456;2023-04-29T00:44:30;46.55;;;35.80;;
55112;SDS011;41006;50.920;3.456;2023-04-29T00:45:03;48.22;;;37.08;;
55112;SDS011;41006;50.920;3.456;2023-04-29T00:45:34;43.22;;;35.80;;
55112;SDS011;41006;50.920;3.456;2023-04-29T00:46:06;46.40;;;33.92;;
55112;SDS011;41006;50.920;3.456;2023-04-29T00:46:36;50.03;;;34.35;;
55112;SDS011;41006;50.920;3.456;2023-04-29T00:47:07;47.90;;;35.50;;
55112;SDS011;41006;50.920;3.456;2023-04-29T00:47:40;44.72;;;34.45;;
55112;SDS011;41006;50.920;3.456;2023-04-29T00:48:11;43.30;;;34.55;;
55112;SDS011;41006;50.920;3.456;2023-04-29T00:48:41;46.22;;;35.15;;
55112;SDS011;41006;50.920;3.456;2023-04-29T00:49:11;44.53;;;35.72;;
55112;SDS011;41006;50.920;3.456;2023-04-29T00:49:44;47.55;;;36.17;;
55112;SDS011;41006;50.920;3.456;2023-04-29T00:50:14;45.40;;;35.38;;
55112;SDS011;41006;50.920;3.456;2023-04-29T00:50:47;46.10;;;37.45;;
55112;SDS011;41006;50.920;3.456;2023-04-29T00:51:17;46.10;;;36.53;;
55112;SDS011;41006;50.920;3.456;2023-04-29T00:51:52;47.95;;;35.90;;
55112;SDS011;41006;50.920;3.456;2023-04-29T00:52:22;47.55;;;36.13;;
55112;SDS011;41006;50.920;3.456;2023-04-29T00:52:52;42.63;;;35.53;;
55112;SDS011;41006;50.920;3.456;2023-04-29T00:53:23;45.85;;;36.78;;
55112;SDS011;41006;50.920;3.456;2023-04-29T00:53:53;45.60;;;36.53;;
55112;SDS011;41006;50.920;3.456;2023-04-29T00:54:25;46.65;;;36.03;;
55112;SDS011;41006;50.920;3.456;2023-04-29T00:54:58;43.40;;;35.78;;
55112;SDS011;41006;50.920;3.456;2023-04-29T00:55:29;48.53;;;35.88;;
55112;SDS011;41006;50.920;3.456;2023-04-29T00:55:59;46.45;;;37.53;;
55112;SDS011;41006;50.920;3.456;2023-04-29T00:56:33;45.67;;;37.42;;
55112;SDS011;41006;50.920;3.456;2023-04-29T00:57:06;47.60;;;38.35;;
55112;SDS011;41006;50.920;3.456;2023-04-29T00:57:39;53.20;;;39.95;;
55112;SDS011;41006;50.920;3.456;2023-04-29T00:58:09;47.70;;;39.63;;
55112;SDS011;41006;50.920;3.456;2023-04-29T00:58:42;48.88;;;37.22;;
55112;SDS011;41006;50.920;3.456;2023-04-29T00:59:18;51.42;;;39.30;;
55112;SDS011;41006;50.920;3.456;2023-04-29T00:59:49;47.28;;;38.90;;
55112;SDS011;41006;50.920;3.456;2023-04-29T01:00:20;51.30;;;40.13;;
55112;SDS011;41006;50.920;3.456;2023-04-29T01:00:50;49.55;;;38.35;;
55112;SDS011;41006;50.920;3.456;2023-04-29T01:01:21;56.38;;;40.40;;
55112;SDS011;41006;50.920;3.456;2023-04-29T01:01:51;54.58;;;37.53;;
55112;SDS011;41006;50.920;3.456;2023-04-29T01:02:23;48.70;;;38.80;;
55112;SDS011;41006;50.920;3.456;2023-04-29T01:02:54;51.83;;;37.85;;
55112;SDS011;41006;50.920;3.456;2023-04-29T01:03:27;46.13;;;38.15;;
55112;SDS011;41006;50.920;3.456;2023-04-29T01:03:57;50.78;;;38.30;;
55112;SDS011;41006;50.920;3.456;2023-04-29T01:04:31;54.88;;;38.13;;
55112;SDS011;41006;50.920;3.456;2023-04-29T01:05:04;53.33;;;39.17;;
55112;SDS011;41006;50.920;3.456;2023-04-29T01:05:34;54.45;;;39.28;;
55112;SDS011;41006;50.920;3.456;2023-04-29T01:06:18;55.55;;;40.78;;
55112;SDS011;41006;50.920;3.456;2023-04-29T01:10:38;55.10;;;41.17;;
55112;SDS011;41006;50.920;3.456;2023-04-29T01:11:10;51.70;;;38.78;;
55112;SDS011;41006;50.920;3.456;2023-04-29T01:11:57;48.25;;;38.70;;
55112;SDS011;41006;50.920;3.456;2023-04-29T01:13:16;49.90;;;39.03;;
55112;SDS011;41006;50.920;3.456;2023-04-29T01:14:18;61.63;;;40.42;;
55112;SDS011;41006;50.920;3.456;2023-04-29T01:14:52;50.38;;;38.65;;
55112;SDS011;41006;50.920;3.456;2023-04-29T01:15:25;48.78;;;39.05;;
55112;SDS011;41006;50.920;3.456;2023-04-29T01:17:14;54.25;;;38.15;;
55112;SDS011;41006;50.920;3.456;2023-04-29T01:17:49;50.03;;;39.13;;
55112;SDS011;41006;50.920;3.456;2023-04-29T01:18:42;55.13;;;39.60;;
55112;SDS011;41006;50.920;3.456;2023-04-29T01:20:15;53.67;;;38.92;;
55112;SDS011;41006;50.920;3.456;2023-04-29T01:20:48;51.70;;;37.88;;
55112;SDS011;41006;50.920;3.456;2023-04-29T01:21:19;54.35;;;38.38;;
55112;SDS011;41006;50.920;3.456;2023-04-29T01:21:52;53.50;;;39.78;;
55112;SDS011;41006;50.920;3.456;2023-04-29T01:22:25;54.80;;;38.65;;
55112;SDS011;41006;50.920;3.456;2023-04-29T01:23:00;53.35;;;38.15;;
55112;SDS011;41006;50.920;3.456;2023-04-29T01:23:33;53.38;;;38.58;;
55112;SDS011;41006;50.920;3.456;2023-04-29T01:24:03;50.13;;;37.42;;
55112;SDS011;41006;50.920;3.456;2023-04-29T01:24:34;54.30;;;39.38;;
55112;SDS011;41006;50.920;3.456;2023-04-29T01:25:06;51.90;;;37.90;;
55112;SDS011;41006;50.920;3.456;2023-04-29T01:25:37;56.28;;;35.55;;
55112;SDS011;41006;50.920;3.456;2023-04-29T01:26:08;53.65;;;39.60;;
55112;SDS011;41006;50.920;3.456;2023-04-29T01:26:39;53.85;;;37.67;;
55112;SDS011;41006;50.920;3.456;2023-04-29T01:28:25;54.05;;;37.58;;
55112;SDS011;41006;50.920;3.456;2023-04-29T01:29:42;51.03;;;37.13;;
55112;SDS011;41006;50.920;3.456;2023-04-29T01:30:32;55.17;;;39.33;;
55112;SDS011;41006;50.920;3.456;2023-04-29T01:31:57;54.03;;;40.55;;
55112;SDS011;41006;50.920;3.456;2023-04-29T01:32:33;52.45;;;40.28;;
55112;SDS011;41006;50.920;3.456;2023-04-29T01:33:13;56.92;;;40.42;;
55112;SDS011;41006;50.920;3.456;2023-04-29T01:34:21;57.88;;;40.95;;
55112;SDS011;41006;50.920;3.456;2023-04-29T01:34:58;48.63;;;39.42;;
55112;SDS011;41006;50.920;3.456;2023-04-29T01:36:09;55.15;;;39.55;;
55112;SDS011;41006;50.920;3.456;2023-04-29T01:37:32;53.55;;;40.40;;
55112;SDS011;41006;50.920;3.456;2023-04-29T01:39:14;58.50;;;41.05;;
55112;SDS011;41006;50.920;3.456;2023-04-29T01:39:49;54.30;;;41.15;;
55112;SDS011;41006;50.920;3.456;2023-04-29T01:41:03;56.45;;;40.30;;
55112;SDS011;41006;50.920;3.456;2023-04-29T01:42:33;60.15;;;40.85;;
55112;SDS011;41006;50.920;3.456;2023-04-29T01:43:05;60.42;;;42.47;;
55112;SDS011;41006;50.920;3.456;2023-04-29T01:43:43;55.50;;;41.70;;
55112;SDS011;41006;50.920;3.456;2023-04-29T01:44:19;61.80;;;41.05;;
55112;SDS011;41006;50.920;3.456;2023-04-29T01:44:54;60.20;;;43.42;;
55112;SDS011;41006;50.920;3.456;2023-04-29T01:45:24;65.90;;;42.17;;
55112;SDS011;41006;50.920;3.456;2023-04-29T01:46:00;56.35;;;40.95;;
55112;SDS011;41006;50.920;3.456;2023-04-29T01:46:33;61.03;;;42.10;;
55112;SDS011;41006;50.920;3.456;2023-04-29T01:47:04;57.25;;;41.55;;
55112;SDS011;41006;50.920;3.456;2023-04-29T01:47:34;62.80;;;43.25;;
55112;SDS011;41006;50.920;3.456;2023-04-29T01:48:05;59.50;;;41.75;;
55112;SDS011;41006;50.920;3.456;2023-04-29T01:48:35;57.88;;;40.63;;
55112;SDS011;41006;50.920;3.456;2023-04-29T01:49:06;61.83;;;40.08;;
55112;SDS011;41006;50.920;3.456;2023-04-29T01:49:36;66.68;;;40.72;;
55112;SDS011;41006;50.920;3.456;2023-04-29T01:50:09;58.35;;;38.90;;
55112;SDS011;41006;50.920;3.456;2023-04-29T01:50:42;59.42;;;38.97;;
55112;SDS011;41006;50.920;3.456;2023-04-29T01:51:13;61.35;;;41.55;;
55112;SDS011;41006;50.920;3.456;2023-04-29T01:51:43;57.78;;;40.17;;
55112;SDS011;41006;50.920;3.456;2023-04-29T01:52:13;61.03;;;40.75;;
55112;SDS011;41006;50.920;3.456;2023-04-29T01:52:44;60.00;;;40.83;;
55112;SDS011;41006;50.920;3.456;2023-04-29T01:53:16;54.28;;;40.63;;
55112;SDS011;41006;50.920;3.456;2023-04-29T01:53:49;54.13;;;39.13;;
55112;SDS011;41006;50.920;3.456;2023-04-29T01:54:19;58.90;;;39.85;;
55112;SDS011;41006;50.920;3.456;2023-04-29T01:54:51;56.00;;;38.95;;
55112;SDS011;41006;50.920;3.456;2023-04-29T01:55:23;62.58;;;40.55;;
55112;SDS011;41006;50.920;3.456;2023-04-29T01:55:54;56.78;;;40.05;;
55112;SDS011;41006;50.920;3.456;2023-04-29T01:56:24;63.03;;;40.17;;
55112;SDS011;41006;50.920;3.456;2023-04-29T01:56:57;60.75;;;40.85;;
55112;SDS011;41006;50.920;3.456;2023-04-29T01:57:33;62.58;;;39.40;;
55112;SDS011;41006;50.920;3.456;2023-04-29T01:58:07;56.67;;;39.00;;
55112;SDS011;41006;50.920;3.456;2023-04-29T01:58:38;56.67;;;39.40;;
55112;SDS011;41006;50.920;3.456;2023-04-29T01:59:10;60.72;;;39.35;;
55112;SDS011;41006;50.920;3.456;2023-04-29T01:59:41;63.95;;;39.80;;
55112;SDS011;41006;50.920;3.456;2023-04-29T02:00:11;53.13;;;39.53;;
55112;SDS011;41006;50.920;3.456;2023-04-29T02:00:41;64.78;;;41.17;;
55112;SDS011;41006;50.920;3.456;2023-04-29T02:01:11;62.28;;;41.00;;
55112;SDS011;41006;50.920;3.456;2023-04-29T02:01:42;57.97;;;40.33;;
55112;SDS011;41006;50.920;3.456;2023-04-29T02:02:14;58.05;;;38.78;;
55112;SDS011;41006;50.920;3.456;2023-04-29T02:02:46;62.50;;;40.30;;
55112;SDS011;41006;50.920;3.456;2023-04-29T02:03:19;58.78;;;40.88;;
55112;SDS011;41006;50.920;3.456;2023-04-29T02:03:52;59.25;;;40.47;;
55112;SDS011;41006;50.920;3.456;2023-04-29T02:04:25;68.53;;;41.03;;
55112;SDS011;41006;50.920;3.456;2023-04-29T02:04:56;55.15;;;39.50;;
55112;SDS011;41006;50.920;3.456;2023-04-29T02:05:29;60.08;;;40.95;;
55112;SDS011;41006;50.920;3.456;2023-04-29T02:06:02;59.22;;;39.45;;
55112;SDS011;41006;50.920;3.456;2023-04-29T02:06:33;63.55;;;41.80;;
55112;SDS011;41006;50.920;3.456;2023-04-29T02:07:05;66.90;;;41.83;;
55112;SDS011;41006;50.920;3.456;2023-04-29T02:07:38;59.25;;;42.00;;
55112;SDS011;41006;50.920;3.456;2023-04-29T02:08:09;63.03;;;42.50;;
55112;SDS011;41006;50.920;3.456;2023-04-29T02:08:39;62.97;;;41.20;;
55112;SDS011;41006;50.920;3.456;2023-04-29T02:09:11;68.20;;;41.72;;
55112;SDS011;41006;50.920;3.456;2023-04-29T02:09:47;65.70;;;42.08;;
55112;SDS011;41006;50.920;3.456;2023-04-29T02:10:20;62.25;;;40.70;;
55112;SDS011;41006;50.920;3.456;2023-04-29T02:11:23;62.30;;;38.83;;
55112;SDS011;41006;50.920;3.456;2023-04-29T02:11:53;56.83;;;40.00;;
55112;SDS011;41006;50.920;3.456;2023-04-29T02:12:23;59.60;;;39.55;;
55112;SDS011;41006;50.920;3.456;2023-04-29T02:12:54;62.45;;;40.10;;
55112;SDS011;41006;50.920;3.456;2023-04-29T02:13:24;56.35;;;39.83;;
55112;SDS011;41006;50.920;3.456;2023-04-29T02:13:55;57.97;;;40.75;;
55112;SDS011;41006;50.920;3.456;2023-04-29T02:14:26;57.10;;;39.78;;
55112;SDS011;41006;50.920;3.456;2023-04-29T02:14:56;54.22;;;38.63;;
55112;SDS011;41006;50.920;3.456;2023-04-29T02:15:29;53.22;;;38.35;;
55112;SDS011;41006;50.920;3.456;2023-04-29T02:16:08;54.65;;;39.10;;
55112;SDS011;41006;50.920;3.456;2023-04-29T02:16:39;60.72;;;39.05;;
55112;SDS011;41006;50.920;3.456;2023-04-29T02:17:09;61.88;;;39.00;;
55112;SDS011;41006;50.920;3.456;2023-04-29T02:17:39;57.10;;;38.78;;
55112;SDS011;41006;50.920;3.456;2023-04-29T02:18:12;56.92;;;38.72;;
55112;SDS011;41006;50.920;3.456;2023-04-29T02:18:44;54.92;;;38.33;;
55112;SDS011;41006;50.920;3.456;2023-04-29T02:19:17;60.22;;;39.88;;
55112;SDS011;41006;50.920;3.456;2023-04-29T02:19:47;53.03;;;38.03;;
55112;SDS011;41006;50.920;3.456;2023-04-29T02:20:22;55.40;;;38.15;;
55112;SDS011;41006;50.920;3.456;2023-04-29T02:20:58;55.20;;;39.70;;
55112;SDS011;41006;50.920;3.456;2023-04-29T02:21:28;57.95;;;38.88;;
55112;SDS011;41006;50.920;3.456;2023-04-29T02:21:59;54.17;;;37.53;;
55112;SDS011;41006;50.920;3.456;2023-04-29T02:22:29;65.03;;;38.75;;
55112;SDS011;41006;50.920;3.456;2023-04-29T02:23:04;52.35;;;37.45;;
55112;SDS011;41006;50.920;3.456;2023-04-29T02:23:35;60.83;;;39.45;;
55112;SDS011;41006;50.920;3.456;2023-04-29T02:24:05;56.47;;;38.85;;
55112;SDS011;41006;50.920;3.456;2023-04-29T02:24:36;55.17;;;38.10;;
55112;SDS011;41006;50.920;3.456;2023-04-29T02:25:06;56.67;;;39.10;;
55112;SDS011;41006;50.920;3.456;2023-04-29T02:25:36;57.35;;;38.83;;
55112;SDS011;41006;50.920;3.456;2023-04-29T02:26:07;56.03;;;40.67;;
55112;SDS011;41006;50.920;3.456;2023-04-29T02:26:41;56.58;;;39.25;;
55112;SDS011;41006;50.920;3.456;2023-04-29T02:27:11;54.97;;;39.38;;
55112;SDS011;41006;50.920;3.456;2023-04-29T02:27:41;54.08;;;36.38;;
55112;SDS011;41006;50.920;3.456;2023-04-29T02:28:11;50.42;;;36.28;;
55112;SDS011;41006;50.920;3.456;2023-04-29T02:28:42;45.15;;;37.78;;
55112;SDS011;41006;50.920;3.456;2023-04-29T02:29:12;43.78;;;35.15;;
55112;SDS011;41006;50.920;3.456;2023-04-29T02:29:42;49.28;;;37.75;;
55112;SDS011;41006;50.920;3.456;2023-04-29T02:30:12;47.40;;;36.60;;
55112;SDS011;41006;50.920;3.456;2023-04-29T02:30:47;45.60;;;35.58;;
55112;SDS011;41006;50.920;3.456;2023-04-29T02:31:20;45.25;;;34.28;;
55112;SDS011;41006;50.920;3.456;2023-04-29T02:31:51;45.70;;;35.25;;
55112;SDS011;41006;50.920;3.456;2023-04-29T02:32:21;40.60;;;35.13;;
55112;SDS011;41006;50.920;3.456;2023-04-29T02:32:51;45.17;;;35.75;;
55112;SDS011;41006;50.920;3.456;2023-04-29T02:33:24;40.10;;;34.10;;
55112;SDS011;41006;50.920;3.456;2023-04-29T02:33:54;43.90;;;34.90;;
55112;SDS011;41006;50.920;3.456;2023-04-29T02:34:25;40.97;;;33.65;;
55112;SDS011;41006;50.920;3.456;2023-04-29T02:34:57;38.90;;;33.85;;
55112;SDS011;41006;50.920;3.456;2023-04-29T02:35:29;38.78;;;34.45;;
55112;SDS011;41006;50.920;3.456;2023-04-29T02:36:00;37.25;;;32.53;;
55112;SDS011;41006;50.920;3.456;2023-04-29T02:36:32;40.88;;;33.13;;
55112;SDS011;41006;50.920;3.456;2023-04-29T02:37:03;38.15;;;31.33;;
55112;SDS011;41006;50.920;3.456;2023-04-29T02:37:33;35.17;;;31.48;;
55112;SDS011;41006;50.920;3.456;2023-04-29T02:38:06;39.88;;;31.65;;
55112;SDS011;41006;50.920;3.456;2023-04-29T02:38:38;43.35;;;32.53;;
55112;SDS011;41006;50.920;3.456;2023-04-29T02:39:11;35.47;;;30.83;;
55112;SDS011;41006;50.920;3.456;2023-04-29T02:39:41;37.42;;;31.52;;
55112;SDS011;41006;50.920;3.456;2023-04-29T02:40:14;39.17;;;31.25;;
55112;SDS011;41006;50.920;3.456;2023-04-29T02:40:46;39.25;;;32.95;;
55112;SDS011;41006;50.920;3.456;2023-04-29T02:41:17;37.05;;;31.63;;
55112;SDS011;41006;50.920;3.456;2023-04-29T02:41:47;33.78;;;30.17;;
55112;SDS011;41006;50.920;3.456;2023-04-29T02:42:20;38.53;;;31.70;;
55112;SDS011;41006;50.920;3.456;2023-04-29T02:42:53;37.15;;;30.85;;
55112;SDS011;41006;50.920;3.456;2023-04-29T02:43:23;37.33;;;30.77;;
55112;SDS011;41006;50.920;3.456;2023-04-29T02:43:54;41.20;;;31.73;;
55112;SDS011;41006;50.920;3.456;2023-04-29T02:44:24;41.38;;;30.85;;
55112;SDS011;41006;50.920;3.456;2023-04-29T02:44:56;36.47;;;31.48;;
55112;SDS011;41006;50.920;3.456;2023-04-29T02:45:29;35.97;;;31.58;;
55112;SDS011;41006;50.920;3.456;2023-04-29T02:45:59;37.88;;;31.63;;
55112;SDS011;41006;50.920;3.456;2023-04-29T02:46:32;35.92;;;32.20;;
55112;SDS011;41006;50.920;3.456;2023-04-29T02:47:04;36.92;;;31.95;;
55112;SDS011;41006;50.920;3.456;2023-04-29T02:47:34;39.65;;;32.85;;
55112;SDS011;41006;50.920;3.456;2023-04-29T02:48:05;40.97;;;30.98;;
55112;SDS011;41006;50.920;3.456;2023-04-29T02:48:38;44.47;;;31.58;;
55112;SDS011;41006;50.920;3.456;2023-04-29T02:49:10;39.20;;;32.47;;
55112;SDS011;41006;50.920;3.456;2023-04-29T02:49:41;36.28;;;31.73;;
55112;SDS011;41006;50.920;3.456;2023-04-29T02:50:16;38.58;;;31.65;;
55112;SDS011;41006;50.920;3.456;2023-04-29T02:50:46;36.90;;;30.83;;
55112;SDS011;41006;50.920;3.456;2023-04-29T02:51:19;38.70;;;30.65;;
55112;SDS011;41006;50.920;3.456;2023-04-29T02:51:51;36.67;;;30.98;;
55112;SDS011;41006;50.920;3.456;2023-04-29T02:52:22;34.65;;;29.92;;
55112;SDS011;41006;50.920;3.456;2023-04-29T02:52:54;35.28;;;31.48;;
55112;SDS011;41006;50.920;3.456;2023-04-29T02:53:27;41.58;;;32.45;;
55112;SDS011;41006;50.920;3.456;2023-04-29T02:53:59;33.60;;;30.10;;
55112;SDS011;41006;50.920;3.456;2023-04-29T02:54:32;33.35;;;29.75;;
55112;SDS011;41006;50.920;3.456;2023-04-29T02:55:02;36.40;;;31.15;;
55112;SDS011;41006;50.920;3.456;2023-04-29T02:55:33;35.58;;;31.80;;
55112;SDS011;41006;50.920;3.456;2023-04-29T02:56:03;35.45;;;31.65;;
55112;SDS011;41006;50.920;3.456;2023-04-29T02:56:34;34.58;;;30.92;;
55112;SDS011;41006;50.920;3.456;2023-04-29T02:57:06;36.95;;;30.42;;
55112;SDS011;41006;50.920;3.456;2023-04-29T02:57:40;35.22;;;30.13;;
55112;SDS011;41006;50.920;3.456;2023-04-29T02:58:10;33.58;;;30.23;;
55112;SDS011;41006;50.920;3.456;2023-04-29T02:58:43;33.75;;;30.00;;
55112;SDS011;41006;50.920;3.456;2023-04-29T02:59:15;38.28;;;30.10;;
55112;SDS011;41006;50.920;3.456;2023-04-29T02:59:49;34.70;;;31.15;;
55112;SDS011;41006;50.920;3.456;2023-04-29T03:00:22;33.25;;;29.67;;
55112;SDS011;41006;50.920;3.456;2023-04-29T03:00:55;34.20;;;30.60;;
55112;SDS011;41006;50.920;3.456;2023-04-29T03:01:28;33.88;;;30.60;;
55112;SDS011;41006;50.920;3.456;2023-04-29T03:01:58;34.22;;;28.92;;
55112;SDS011;41006;50.920;3.456;2023-04-29T03:02:30;37.72;;;30.42;;
55112;SDS011;41006;50.920;3.456;2023-04-29T03:03:03;34.38;;;29.75;;
55112;SDS011;41006;50.920;3.456;2023-04-29T03:03:33;33.17;;;29.45;;
55112;SDS011;41006;50.920;3.456;2023-04-29T03:04:06;34.35;;;30.13;;
55112;SDS011;41006;50.920;3.456;2023-04-29T03:04:36;35.13;;;30.58;;
55112;SDS011;41006;50.920;3.456;2023-04-29T03:05:08;34.78;;;31.17;;
55112;SDS011;41006;50.920;3.456;2023-04-29T03:05:41;38.47;;;29.33;;
55112;SDS011;41006;50.920;3.456;2023-04-29T03:06:11;33.72;;;30.10;;
55112;SDS011;41006;50.920;3.456;2023-04-29T03:06:42;34.10;;;29.13;;
55112;SDS011;41006;50.920;3.456;2023-04-29T03:07:12;35.42;;;29.60;;
55112;SDS011;41006;50.920;3.456;2023-04-29T03:07:43;33.72;;;28.95;;
55112;SDS011;41006;50.920;3.456;2023-04-29T03:08:13;33.35;;;30.00;;
55112;SDS011;41006;50.920;3.456;2023-04-29T03:08:45;34.25;;;30.10;;
55112;SDS011;41006;50.920;3.456;2023-04-29T03:09:18;33.05;;;28.92;;
55112;SDS011;41006;50.920;3.456;2023-04-29T03:09:50;34.58;;;28.23;;
55112;SDS011;41006;50.920;3.456;2023-04-29T03:10:23;31.80;;;28.48;;
55112;SDS011;41006;50.920;3.456;2023-04-29T03:10:56;34.15;;;29.63;;
55112;SDS011;41006;50.920;3.456;2023-04-29T03:11:26;33.67;;;30.00;;
55112;SDS011;41006;50.920;3.456;2023-04-29T03:11:57;34.42;;;30.80;;
55112;SDS011;41006;50.920;3.456;2023-04-29T03:12:29;36.33;;;31.10;;
55112;SDS011;41006;50.920;3.456;2023-04-29T03:13:02;36.65;;;30.17;;
55112;SDS011;41006;50.920;3.456;2023-04-29T03:13:35;33.92;;;29.20;;
55112;SDS011;41006;50.920;3.456;2023-04-29T03:14:09;33.10;;;29.88;;
55112;SDS011;41006;50.920;3.456;2023-04-29T03:14:40;33.10;;;29.55;;
55112;SDS011;41006;50.920;3.456;2023-04-29T03:15:12;35.20;;;31.15;;
55112;SDS011;41006;50.920;3.456;2023-04-29T03:15:42;38.17;;;29.63;;
55112;SDS011;41006;50.920;3.456;2023-04-29T03:16:13;32.05;;;28.67;;
55112;SDS011;41006;50.920;3.456;2023-04-29T03:16:45;33.92;;;29.52;;
55112;SDS011;41006;50.920;3.456;2023-04-29T03:17:16;35.20;;;28.85;;
55112;SDS011;41006;50.920;3.456;2023-04-29T03:17:46;36.17;;;31.05;;
55112;SDS011;41006;50.920;3.456;2023-04-29T03:18:19;33.42;;;29.88;;
55112;SDS011;41006;50.920;3.456;2023-04-29T03:18:54;37.58;;;30.10;;
55112;SDS011;41006;50.920;3.456;2023-04-29T03:19:29;33.03;;;28.50;;
55112;SDS011;41006;50.920;3.456;2023-04-29T03:19:59;34.78;;;28.48;;
55112;SDS011;41006;50.920;3.456;2023-04-29T03:20:30;36.70;;;31.48;;
55112;SDS011;41006;50.920;3.456;2023-04-29T03:21:01;32.13;;;27.40;;
55112;SDS011;41006;50.920;3.456;2023-04-29T03:21:33;35.17;;;29.67;;
55112;SDS011;41006;50.920;3.456;2023-04-29T03:22:03;35.45;;;29.50;;
55112;SDS011;41006;50.920;3.456;2023-04-29T03:22:34;32.30;;;28.90;;
55112;SDS011;41006;50.920;3.456;2023-04-29T03:23:06;35.42;;;29.35;;